Darstellungsparameter: Aktuell verwendete Einstellungen:
Skalierung der Graphiken ... ?
xyx+y,   Skalierungsfaktor:      Skalierung: Modus: x, Faktor: 1
Darstellungszeitraum ... ?
Vom - - bis: - -   Zeitraum: 12.05.2021 - 12.05.2021
Min/Max/Avg-Anzeige ... ?
Zeige MMA aktuell
Zeige MMA Monat
Zeige MMA alles
Zeige --A aktuell
Zeige --A Monat
Zeige --A alles
Keine MMA-Anzeige
MMA:
Minimum Maximum Average (ber die Originaldaten)
MMA-Basis: 12.05.2021 - 12.05.2021
Quicknavigation für Darstellung... ?
Tage:      1T, 2T, 3T, 5T -1T -2T -3T -5T +1T +2T +3T +5T
Wochen: 1W, 2W, 3W -1W -2W -3W +1W +2W +3W
Monate: 1M, 3M, 6M -1M -3M -6M +1M +3M +6M
Jahre:    1J, 3J, 5J, 10J -1J -3J -5J -10J +1J +3J +5J +10J
Nutze für die Darstellung ... ?
Originaldaten oder Mittelwerte auf ...
Stundenbasis Tagesbasis Wochenbasis
Monatsbasis Jahresbasis      Datenbasis: Original-Daten
Darstellen als:
Statistik (Auto) Statistik J:M      Darstellung:

Der gewünschte Datumsbereich war nicht gültig/verfügbar und wurde korrigiert....
Das angegebene Enddatum (28.06.2027 23:59:59) liegt in der Zukunft.
Das angegebene Startdatum (08.06.2027 00:00:00) liegt in der Zukunft.


Zur Graphik,    zurück zur Übersicht aller Sensoren.
 
Tabellarische Datenbersicht: ?
 
Sensor: Nr:Datum:Temp:Abs-Feuchte:Windchill:Wind:
Aussen-T/F 1 12-05-2021 02:00:00 11.6 C 9.98 g/m*3 11.6 C 1.6 km/h
2 12-05-2021 02:05:00 11.6 C 9.98 g/m*3 11.6 C 1.6 km/h
3 12-05-2021 02:10:00 11.6 C 9.98 g/m*3 11.6 C 1.6 km/h
4 12-05-2021 02:15:00 11.5 C 9.92 g/m*3 11.5 C 1.6 km/h
5 12-05-2021 02:20:00 11.5 C 9.92 g/m*3 11.5 C 0 km/h
6 12-05-2021 02:25:00 11.4 C 9.85 g/m*3 11.4 C 1.6 km/h
7 12-05-2021 02:30:00 11.4 C 9.85 g/m*3 11.4 C 1.6 km/h
8 12-05-2021 02:35:00 11.3 C 9.79 g/m*3 11.3 C 3.2 km/h
9 12-05-2021 02:40:00 11.3 C 9.79 g/m*3 11.3 C 4.8 km/h
10 12-05-2021 02:45:00 11.3 C 9.79 g/m*3 11.3 C 9.7 km/h
11 12-05-2021 02:50:00 11.2 C 9.73 g/m*3 11.2 C 3.2 km/h
12 12-05-2021 02:55:00 11.2 C 9.73 g/m*3 11.2 C 1.6 km/h
13 12-05-2021 03:00:00 11.1 C 9.67 g/m*3 11.1 C 3.2 km/h
14 12-05-2021 03:05:00 11.1 C 9.67 g/m*3 11.1 C 1.6 km/h
15 12-05-2021 03:10:00 11.1 C 9.67 g/m*3 11.1 C 3.2 km/h
16 12-05-2021 03:15:00 11 C 9.61 g/m*3 11 C 3.2 km/h
17 12-05-2021 03:20:00 11 C 9.61 g/m*3 11 C 1.6 km/h
18 12-05-2021 03:25:00 10.9 C 9.55 g/m*3 10.9 C 3.2 km/h
19 12-05-2021 03:30:00 10.9 C 9.55 g/m*3 10.9 C 3.2 km/h
20 12-05-2021 03:35:00 10.9 C 9.55 g/m*3 10.41 C 6.4 km/h
21 12-05-2021 03:40:00 10.9 C 9.55 g/m*3 10.9 C 3.2 km/h
22 12-05-2021 03:45:00 11 C 9.61 g/m*3 11 C 3.2 km/h
23 12-05-2021 03:50:00 11.1 C 9.67 g/m*3 11.1 C 6.4 km/h
24 12-05-2021 03:55:00 11.1 C 9.67 g/m*3 11.1 C 1.6 km/h
25 12-05-2021 04:00:00 11.1 C 9.67 g/m*3 11.1 C 1.6 km/h
Sensor: Nr:Datum:Temp:Abs-Feuchte:Windchill:Wind:
Aussen-T/F 26 12-05-2021 04:05:00 11.2 C 9.73 g/m*3 11.2 C 1.6 km/h
27 12-05-2021 04:10:00 11.2 C 9.73 g/m*3 11.2 C 1.6 km/h
28 12-05-2021 04:15:00 11.1 C 9.67 g/m*3 11.1 C 1.6 km/h
29 12-05-2021 04:20:00 11.1 C 9.67 g/m*3 11.1 C 1.6 km/h
30 12-05-2021 04:25:00 11.1 C 9.67 g/m*3 11.1 C 0 km/h
31 12-05-2021 04:30:00 11.1 C 9.67 g/m*3 11.1 C 1.6 km/h
32 12-05-2021 04:35:00 11.1 C 9.67 g/m*3 11.1 C 0 km/h
33 12-05-2021 04:40:00 11.1 C 9.67 g/m*3 11.1 C 1.6 km/h
34 12-05-2021 04:45:00 11 C 9.61 g/m*3 11 C 1.6 km/h
35 12-05-2021 04:50:00 11.1 C 9.67 g/m*3 11.1 C 0 km/h
36 12-05-2021 04:55:00 11.1 C 9.67 g/m*3 11.1 C 1.6 km/h
37 12-05-2021 05:00:00 11.1 C 9.67 g/m*3 11.1 C 1.6 km/h
38 12-05-2021 05:05:00 11.1 C 9.67 g/m*3 11.1 C 0 km/h
39 12-05-2021 05:10:00 11.1 C 9.67 g/m*3 11.1 C 1.6 km/h
40 12-05-2021 05:15:00 11.1 C 9.67 g/m*3 11.1 C 1.6 km/h
41 12-05-2021 05:20:00 11.1 C 9.67 g/m*3 11.1 C 1.6 km/h
42 12-05-2021 05:25:00 11.1 C 9.67 g/m*3 11.1 C 1.6 km/h
43 12-05-2021 05:30:00 11.1 C 9.67 g/m*3 11.1 C 4.8 km/h
44 12-05-2021 05:35:00 11.1 C 9.67 g/m*3 11.1 C 3.2 km/h
45 12-05-2021 05:40:00 11.1 C 9.67 g/m*3 11.1 C 1.6 km/h
46 12-05-2021 05:45:00 11.1 C 9.67 g/m*3 11.1 C 1.6 km/h
47 12-05-2021 05:50:00 11.1 C 9.67 g/m*3 11.1 C 6.4 km/h
48 12-05-2021 05:55:00 11.1 C 9.67 g/m*3 11.1 C 1.6 km/h
49 12-05-2021 06:00:00 11 C 9.61 g/m*3 11 C 4.8 km/h
50 12-05-2021 06:05:00 11 C 9.61 g/m*3 11 C 1.6 km/h
Sensor: Nr:Datum:Temp:Abs-Feuchte:Windchill:Wind:
Aussen-T/F 51 12-05-2021 06:10:00 11 C 9.61 g/m*3 11 C 3.2 km/h
52 12-05-2021 06:15:00 11 C 9.61 g/m*3 11 C 3.2 km/h
53 12-05-2021 06:20:00 11 C 9.61 g/m*3 11 C 3.2 km/h
54 12-05-2021 06:25:00 11 C 9.61 g/m*3 11 C 1.6 km/h
55 12-05-2021 06:30:00 11 C 9.61 g/m*3 10.16 C 8.1 km/h
56 12-05-2021 06:35:00 11 C 9.61 g/m*3 11 C 4.8 km/h
57 12-05-2021 06:40:00 11 C 9.61 g/m*3 11 C 1.6 km/h
58 12-05-2021 06:45:00 11 C 9.61 g/m*3 11 C 4.8 km/h
59 12-05-2021 06:50:00 11 C 9.61 g/m*3 11 C 4.8 km/h
60 12-05-2021 06:55:00 11.1 C 9.67 g/m*3 11.1 C 8.1 km/h
61 12-05-2021 07:00:00 11.1 C 9.67 g/m*3 11.1 C 1.6 km/h
62 12-05-2021 07:05:00 11.1 C 9.57 g/m*3 11.1 C 4.8 km/h
63 12-05-2021 07:10:00 11.1 C 9.57 g/m*3 11.1 C 3.2 km/h
64 12-05-2021 07:15:00 11.1 C 9.57 g/m*3 11.1 C 0 km/h
65 12-05-2021 07:20:00 11.1 C 9.57 g/m*3 11.1 C 1.6 km/h
66 12-05-2021 07:25:00 11.1 C 9.57 g/m*3 11.1 C 4.8 km/h
67 12-05-2021 07:30:00 11 C 9.51 g/m*3 11 C 1.6 km/h
68 12-05-2021 07:35:00 11 C 9.51 g/m*3 10.52 C 6.4 km/h
69 12-05-2021 07:40:00 11 C 9.51 g/m*3 11 C 0 km/h
70 12-05-2021 07:45:00 11.1 C 9.57 g/m*3 11.1 C 1.6 km/h
71 12-05-2021 07:50:00 11.1 C 9.57 g/m*3 11.1 C 4.8 km/h
72 12-05-2021 07:55:00 11.3 C 9.79 g/m*3 11.3 C 4.8 km/h
73 12-05-2021 08:00:00 11.3 C 9.69 g/m*3 11.3 C 8.1 km/h
74 12-05-2021 08:05:00 11.4 C 9.75 g/m*3 11.4 C 11.3 km/h
75 12-05-2021 08:10:00 11.6 C 9.87 g/m*3 11.6 C 6.4 km/h
Sensor: Nr:Datum:Temp:Abs-Feuchte:Windchill:Wind:
Aussen-T/F 76 12-05-2021 08:15:00 11.7 C 9.94 g/m*3 11.7 C 9.7 km/h
77 12-05-2021 08:20:00 11.8 C 9.89 g/m*3 11.8 C 9.7 km/h
78 12-05-2021 08:25:00 11.9 C 9.96 g/m*3 11.9 C 6.4 km/h
79 12-05-2021 08:30:00 12 C 10.02 g/m*3 12 C 8.1 km/h
80 12-05-2021 08:35:00 12.1 C 9.97 g/m*3 12.1 C 8.1 km/h
81 12-05-2021 08:40:00 12.2 C 10.04 g/m*3 12.2 C 6.4 km/h
82 12-05-2021 08:45:00 12.3 C 10.1 g/m*3 12.3 C 6.4 km/h
83 12-05-2021 08:50:00 12.4 C 10.16 g/m*3 12.4 C 9.7 km/h
84 12-05-2021 08:55:00 12.4 C 10.05 g/m*3 12.4 C 6.4 km/h
85 12-05-2021 09:00:00 12.6 C 10.18 g/m*3 12.6 C 9.7 km/h
86 12-05-2021 09:05:00 12.7 C 10.24 g/m*3 12.7 C 6.4 km/h
87 12-05-2021 09:10:00 12.7 C 10.13 g/m*3 12.7 C 8.1 km/h
88 12-05-2021 09:15:00 12.7 C 10.02 g/m*3 12.7 C 9.7 km/h
89 12-05-2021 09:20:00 12.8 C 10.08 g/m*3 12.8 C 4.8 km/h
90 12-05-2021 09:25:00 12.9 C 10.03 g/m*3 12.9 C 9.7 km/h
91 12-05-2021 09:30:00 13 C 10.09 g/m*3 13 C 9.7 km/h
92 12-05-2021 09:35:00 13.2 C 10.22 g/m*3 13.2 C 8.1 km/h
93 12-05-2021 09:40:00 13.3 C 10.28 g/m*3 13.3 C 8.1 km/h
94 12-05-2021 09:45:00 13.4 C 10.35 g/m*3 13.4 C 6.4 km/h
95 12-05-2021 09:50:00 13.6 C 10.36 g/m*3 13.6 C 9.7 km/h
96 12-05-2021 09:55:00 13.6 C 10.24 g/m*3 13.6 C 8.1 km/h
97 12-05-2021 10:00:00 13.7 C 10.3 g/m*3 13.7 C 8.1 km/h
98 12-05-2021 10:05:00 13.9 C 10.43 g/m*3 13.9 C 6.4 km/h
99 12-05-2021 10:10:00 14 C 10.49 g/m*3 14 C 9.7 km/h
100 12-05-2021 10:15:00 14 C 10.37 g/m*3 14 C 9.7 km/h
Sensor: Nr:Datum:Temp:Abs-Feuchte:Windchill:Wind:
Aussen-T/F 101 12-05-2021 10:20:00 14.1 C 10.44 g/m*3 14.1 C 8.1 km/h
102 12-05-2021 10:25:00 14.2 C 10.38 g/m*3 14.2 C 9.7 km/h
103 12-05-2021 10:30:00 14.2 C 10.5 g/m*3 14.2 C 8.1 km/h
104 12-05-2021 10:35:00 14.2 C 10.5 g/m*3 14.2 C 9.7 km/h
105 12-05-2021 10:40:00 14.3 C 10.44 g/m*3 14.3 C 9.7 km/h
106 12-05-2021 10:45:00 14.4 C 10.38 g/m*3 14.4 C 8.1 km/h
107 12-05-2021 10:50:00 14.4 C 10.38 g/m*3 14.4 C 9.7 km/h
108 12-05-2021 10:55:00 14.5 C 10.45 g/m*3 14.5 C 8.1 km/h
109 12-05-2021 11:00:00 14.7 C 10.45 g/m*3 14.7 C 8.1 km/h
110 12-05-2021 11:05:00 14.7 C 10.45 g/m*3 14.7 C 4.8 km/h
111 12-05-2021 11:10:00 14.7 C 10.32 g/m*3 14.7 C 8.1 km/h
112 12-05-2021 11:15:00 14.8 C 10.51 g/m*3 14.8 C 6.4 km/h
113 12-05-2021 11:20:00 14.9 C 10.58 g/m*3 14.9 C 8.1 km/h
114 12-05-2021 11:25:00 14.9 C 10.32 g/m*3 14.9 C 6.4 km/h
115 12-05-2021 11:30:00 14.9 C 10.32 g/m*3 14.9 C 6.4 km/h
116 12-05-2021 11:35:00 15 C 10.39 g/m*3 15 C 8.1 km/h
117 12-05-2021 11:40:00 15.1 C 10.58 g/m*3 15.1 C 4.8 km/h
118 12-05-2021 11:45:00 15.1 C 10.32 g/m*3 15.1 C 6.4 km/h
119 12-05-2021 11:50:00 15.1 C 10.06 g/m*3 15.1 C 6.4 km/h
120 12-05-2021 11:55:00 15.1 C 10.45 g/m*3 15.1 C 4.8 km/h
121 12-05-2021 12:00:00 15.2 C 10.38 g/m*3 15.2 C 3.2 km/h
122 12-05-2021 12:05:00 15.3 C 10.32 g/m*3 15.3 C 6.4 km/h
123 12-05-2021 12:10:00 15.3 C 10.06 g/m*3 15.3 C 8.1 km/h
124 12-05-2021 12:15:00 15.2 C 9.99 g/m*3 15.2 C 8.1 km/h
125 12-05-2021 12:20:00 15.2 C 10.12 g/m*3 15.2 C 6.4 km/h
Sensor: Nr:Datum:Temp:Abs-Feuchte:Windchill:Wind:
Aussen-T/F 126 12-05-2021 12:25:00 15.2 C 9.99 g/m*3 15.2 C 4.8 km/h
127 12-05-2021 12:30:00 15.2 C 9.86 g/m*3 15.2 C 3.2 km/h
128 12-05-2021 12:35:00 15.2 C 9.86 g/m*3 15.2 C 1.6 km/h
129 12-05-2021 12:40:00 15.4 C 9.72 g/m*3 15.4 C 6.4 km/h
130 12-05-2021 12:45:00 15.4 C 9.33 g/m*3 15.4 C 4.8 km/h
131 12-05-2021 12:50:00 15.5 C 9.52 g/m*3 15.5 C 3.2 km/h
132 12-05-2021 12:55:00 15.6 C 9.31 g/m*3 15.6 C 3.2 km/h
133 12-05-2021 13:00:00 15.6 C 9.18 g/m*3 15.6 C 4.8 km/h
134 12-05-2021 13:05:00 15.7 C 9.23 g/m*3 15.7 C 4.8 km/h
135 12-05-2021 13:10:00 15.8 C 9.15 g/m*3 15.8 C 0 km/h
136 12-05-2021 13:15:00 16 C 9.54 g/m*3 16 C 8.1 km/h
137 12-05-2021 13:20:00 16.2 C 9.52 g/m*3 16.2 C 8.1 km/h
138 12-05-2021 13:25:00 16.3 C 9.16 g/m*3 16.3 C 6.4 km/h
139 12-05-2021 13:30:00 16.4 C 9.21 g/m*3 16.4 C 9.7 km/h
140 12-05-2021 13:35:00 16.4 C 8.93 g/m*3 16.4 C 9.7 km/h
141 12-05-2021 13:40:00 16.5 C 8.57 g/m*3 16.5 C 6.4 km/h
142 12-05-2021 13:45:00 16.6 C 8.76 g/m*3 16.6 C 4.8 km/h
143 12-05-2021 13:50:00 16.6 C 9.18 g/m*3 16.6 C 6.4 km/h
144 12-05-2021 13:55:00 16.8 C 8.58 g/m*3 16.8 C 4.8 km/h
145 12-05-2021 14:00:00 17 C 8.97 g/m*3 17 C 6.4 km/h
146 12-05-2021 14:05:00 17.2 C 9.37 g/m*3 17.2 C 11.3 km/h
147 12-05-2021 14:10:00 17.2 C 9.37 g/m*3 17.2 C 11.3 km/h
148 12-05-2021 14:15:00 17.1 C 9.46 g/m*3 17.1 C 9.7 km/h
149 12-05-2021 14:20:00 16.8 C 9.29 g/m*3 16.8 C 8.1 km/h
150 12-05-2021 14:25:00 16.7 C 9.38 g/m*3 16.7 C 8.1 km/h
Sensor: Nr:Datum:Temp:Abs-Feuchte:Windchill:Wind:
Aussen-T/F 151 12-05-2021 14:30:00 16.7 C 9.38 g/m*3 16.7 C 12.9 km/h
152 12-05-2021 14:35:00 16.8 C 9.44 g/m*3 16.8 C 9.7 km/h
153 12-05-2021 14:40:00 16.9 C 9.64 g/m*3 16.9 C 11.3 km/h
154 12-05-2021 14:45:00 16.8 C 9.58 g/m*3 16.8 C 6.4 km/h
155 12-05-2021 14:50:00 16.6 C 9.18 g/m*3 16.6 C 6.4 km/h
156 12-05-2021 14:55:00 16.7 C 9.1 g/m*3 16.7 C 8.1 km/h
157 12-05-2021 15:00:00 16.8 C 9.01 g/m*3 16.8 C 12.9 km/h
158 12-05-2021 15:05:00 17.1 C 9.17 g/m*3 17.1 C 11.3 km/h
159 12-05-2021 15:10:00 17.3 C 9.28 g/m*3 17.3 C 6.4 km/h
160 12-05-2021 15:15:00 17.6 C 9 g/m*3 17.6 C 8.1 km/h
161 12-05-2021 15:20:00 17.7 C 9.2 g/m*3 17.7 C 1.6 km/h
162 12-05-2021 15:25:00 17.9 C 8.86 g/m*3 17.9 C 9.7 km/h
163 12-05-2021 15:30:00 17.9 C 8.7 g/m*3 17.9 C 6.4 km/h
164 12-05-2021 15:35:00 17.7 C 9.05 g/m*3 17.7 C 1.6 km/h
165 12-05-2021 15:40:00 17.6 C 8.7 g/m*3 17.6 C 6.4 km/h
166 12-05-2021 15:45:00 17.5 C 8.95 g/m*3 17.5 C 3.2 km/h
167 12-05-2021 15:50:00 17.4 C 9.19 g/m*3 17.4 C 0 km/h
168 12-05-2021 15:55:00 17.4 C 9.04 g/m*3 17.4 C 0 km/h
169 12-05-2021 16:00:00 17.4 C 8.74 g/m*3 17.4 C 0 km/h
170 12-05-2021 16:05:00 17.5 C 8.65 g/m*3 17.5 C 1.6 km/h
171 12-05-2021 16:10:00 17.6 C 9 g/m*3 17.6 C 0 km/h
172 12-05-2021 16:15:00 17.6 C 9 g/m*3 17.6 C 1.6 km/h
173 12-05-2021 16:20:00 17.6 C 8.7 g/m*3 17.6 C 1.6 km/h
174 12-05-2021 16:25:00 17.6 C 8.7 g/m*3 17.6 C 3.2 km/h
175 12-05-2021 16:30:00 17.5 C 8.95 g/m*3 17.5 C 3.2 km/h
Sensor: Nr:Datum:Temp:Abs-Feuchte:Windchill:Wind:
Aussen-T/F 176 12-05-2021 16:35:00 17.4 C 8.89 g/m*3 17.4 C 1.6 km/h
177 12-05-2021 16:40:00 17.4 C 8.74 g/m*3 17.4 C 4.8 km/h
178 12-05-2021 16:45:00 17.4 C 8.6 g/m*3 17.4 C 3.2 km/h
179 12-05-2021 16:50:00 17.7 C 8.9 g/m*3 17.7 C 0 km/h
180 12-05-2021 16:55:00 17.8 C 8.65 g/m*3 17.8 C 6.4 km/h
181 12-05-2021 17:00:00 17.9 C 8.55 g/m*3 17.9 C 4.8 km/h
182 12-05-2021 17:05:00 18 C 8.6 g/m*3 18 C 8.1 km/h
183 12-05-2021 17:10:00 18.2 C 8.7 g/m*3 18.2 C 8.1 km/h
184 12-05-2021 17:15:00 18.3 C 9.07 g/m*3 18.3 C 6.4 km/h
185 12-05-2021 17:20:00 18.3 C 9.38 g/m*3 18.3 C 4.8 km/h
186 12-05-2021 17:25:00 18.3 C 8.76 g/m*3 18.3 C 9.7 km/h
187 12-05-2021 17:30:00 18.3 C 9.07 g/m*3 18.3 C 9.7 km/h
188 12-05-2021 17:35:00 18.3 C 9.22 g/m*3 18.3 C 9.7 km/h
189 12-05-2021 17:40:00 18.1 C 9.27 g/m*3 18.1 C 3.2 km/h
190 12-05-2021 17:45:00 17.9 C 9.16 g/m*3 17.9 C 6.4 km/h
191 12-05-2021 17:50:00 17.9 C 9.92 g/m*3 17.9 C 6.4 km/h
192 12-05-2021 17:55:00 18.2 C 9.48 g/m*3 18.2 C 9.7 km/h
193 12-05-2021 18:00:00 18.2 C 9.48 g/m*3 18.2 C 4.8 km/h
194 12-05-2021 18:05:00 18.3 C 9.54 g/m*3 18.3 C 6.4 km/h
195 12-05-2021 18:10:00 18.7 C 9.61 g/m*3 18.7 C 6.4 km/h
196 12-05-2021 18:15:00 18.9 C 9.56 g/m*3 18.9 C 12.9 km/h
197 12-05-2021 18:20:00 18.8 C 9.82 g/m*3 18.8 C 12.9 km/h
198 12-05-2021 18:25:00 19.1 C 9.34 g/m*3 19.1 C 9.7 km/h
199 12-05-2021 18:30:00 19.3 C 9.45 g/m*3 19.3 C 8.1 km/h
200 12-05-2021 18:35:00 19.4 C 9.01 g/m*3 19.4 C 8.1 km/h
Sensor: Nr:Datum:Temp:Abs-Feuchte:Windchill:Wind:
Aussen-T/F 201 12-05-2021 18:40:00 19.4 C 9.51 g/m*3 19.4 C 11.3 km/h
202 12-05-2021 18:45:00 19.5 C 9.4 g/m*3 19.5 C 6.4 km/h
203 12-05-2021 18:50:00 19.6 C 9.28 g/m*3 19.6 C 9.7 km/h
204 12-05-2021 18:55:00 19.6 C 9.28 g/m*3 19.6 C 6.4 km/h
205 12-05-2021 19:00:00 19.4 C 9.18 g/m*3 19.4 C 8.1 km/h
206 12-05-2021 19:05:00 19.3 C 9.45 g/m*3 19.3 C 8.1 km/h
207 12-05-2021 19:10:00 19.2 C 9.23 g/m*3 19.2 C 9.7 km/h
208 12-05-2021 19:15:00 18.9 C 9.23 g/m*3 18.9 C 14.5 km/h
209 12-05-2021 19:20:00 18.8 C 9.02 g/m*3 18.8 C 14.5 km/h
210 12-05-2021 19:25:00 18.7 C 9.29 g/m*3 18.7 C 9.7 km/h
211 12-05-2021 19:30:00 18.8 C 9.02 g/m*3 18.8 C 8.1 km/h
212 12-05-2021 19:35:00 18.8 C 9.18 g/m*3 18.8 C 4.8 km/h
213 12-05-2021 19:40:00 18.8 C 8.86 g/m*3 18.8 C 6.4 km/h
214 12-05-2021 19:45:00 18.7 C 8.81 g/m*3 18.7 C 4.8 km/h
215 12-05-2021 19:50:00 18.7 C 9.13 g/m*3 18.7 C 3.2 km/h
216 12-05-2021 19:55:00 18.8 C 9.02 g/m*3 18.8 C 6.4 km/h
217 12-05-2021 20:00:00 18.6 C 8.75 g/m*3 18.6 C 8.1 km/h

Legende:
   Min
   Max


Maximal/Minimal-Werte vom 12.05.2021 - 12.05.2021

Sensor Min Max Avg
Temp
(Aussen-T/F)
10.9 °C
12-05-2021  03:25:00
19.6 °C
12-05-2021  18:50:00
14.48 °C
Abs-Feuchte
(Aussen-T/F)
8.55 g/m*3
12-05-2021  17:00:00
10.58 g/m*3
12-05-2021  11:20:00
9.55 g/m*3
Windchill
(Aussen-T/F)
10.16 C
12-05-2021  06:30:00
19.6 C
12-05-2021  18:50:00
14.41 C

Die Daten stammen von einer Davis Vantage Pro 2 Wetter-Station und werden unter Linux mit der Software wview2wettercgi und aufbereitet. Alle Angaben erfolgen ohne Gewähr für ihre Vollständigkeit oder Richtigkeit.
Kontakt: Rainer Krienke krienke@uni-koblenz.de . Meine Webseiten an der Uni Koblenz oder privat.
Version: $Revision: 0.78 $